createdAt,value
2023-02-12T00:00:44.322Z,25.33
2023-02-12T00:03:11.121Z,22.67
2023-02-12T00:05:38.130Z,20.67
2023-02-12T00:08:04.786Z,22.33
2023-02-12T00:10:31.262Z,17.33
2023-02-12T00:12:57.810Z,25.67
2023-02-12T00:15:24.436Z,27.00
2023-02-12T00:17:50.986Z,18.00
2023-02-12T00:20:17.669Z,20.67
2023-02-12T00:22:44.341Z,24.00
2023-02-12T00:25:10.953Z,22.67
2023-02-12T00:27:37.426Z,20.67
2023-02-12T00:30:04.304Z,25.00
2023-02-12T00:32:30.734Z,23.00
2023-02-12T00:34:57.210Z,27.75
2023-02-12T00:37:23.957Z,27.00
2023-02-12T00:39:50.439Z,30.00
2023-02-12T00:42:16.930Z,27.25
2023-02-12T00:44:43.690Z,27.25
2023-02-12T00:47:10.204Z,30.75
2023-02-12T00:49:36.672Z,23.50
2023-02-12T00:52:04.344Z,18.67
2023-02-12T00:54:31.708Z,18.33
2023-02-12T00:56:59.134Z,21.00
2023-02-12T00:59:26.295Z,26.00
2023-02-12T01:01:54.763Z,21.00
2023-02-12T01:04:21.322Z,14.67
2023-02-12T01:06:48.154Z,12.67
2023-02-12T01:09:14.933Z,17.33
2023-02-12T01:11:41.791Z,13.00
2023-02-12T01:14:08.837Z,16.00
2023-02-12T01:16:36.769Z,15.00
2023-02-12T01:19:07.232Z,19.00
2023-02-12T01:21:34.790Z,10.33
2023-02-12T01:24:02.050Z,9.33
2023-02-12T01:26:29.044Z,7.33
2023-02-12T01:28:57.294Z,5.67
2023-02-12T01:31:25.129Z,11.33
2023-02-12T01:33:53.371Z,17.00
2023-02-12T01:36:20.713Z,18.50
2023-02-12T01:38:47.748Z,11.00
2023-02-12T01:41:15.831Z,14.00
2023-02-12T01:43:42.686Z,13.67
2023-02-12T01:46:10.520Z,22.00
2023-02-12T01:48:39.048Z,24.00
2023-02-12T01:51:07.291Z,7.33
2023-02-12T01:53:36.200Z,4.00
2023-02-12T01:56:03.581Z,7.33
2023-02-12T01:58:32.425Z,7.00
2023-02-12T02:01:00.903Z,7.00
2023-02-12T02:03:27.450Z,10.33
2023-02-12T02:05:54.305Z,7.00
2023-02-12T02:08:21.240Z,11.00
2023-02-12T02:10:47.697Z,10.00
2023-02-12T02:13:32.811Z,7.00
2023-02-12T02:16:00.879Z,0.00
2023-02-12T02:18:33.577Z,2.00
2023-02-12T02:21:09.554Z,2.33
2023-02-12T02:23:45.670Z,3.00
2023-02-12T02:26:15.258Z,4.33
2023-02-12T02:28:59.285Z,4.00
2023-02-12T02:31:32.008Z,4.33
2023-02-12T02:34:03.850Z,8.67
2023-02-12T02:36:33.308Z,4.00
2023-02-12T02:39:26.022Z,3.00
2023-02-12T02:41:58.503Z,6.25
2023-02-12T02:44:29.246Z,7.75
2023-02-12T02:46:57.890Z,6.00
2023-02-12T02:49:31.840Z,5.50
2023-02-12T02:52:03.476Z,4.00
2023-02-12T02:54:32.589Z,7.00
2023-02-12T02:57:05.733Z,4.67
2023-02-12T02:59:35.111Z,4.00
2023-02-12T03:02:05.109Z,4.00
2023-02-12T03:04:35.159Z,4.00
2023-02-12T03:07:17.924Z,2.33
2023-02-12T03:09:47.726Z,5.00
2023-02-12T03:12:16.423Z,5.00
2023-02-12T03:14:46.406Z,4.00
2023-02-12T03:17:22.096Z,7.00
2023-02-12T03:19:53.489Z,5.67
2023-02-12T03:22:23.338Z,3.33
2023-02-12T03:24:51.256Z,3.67
2023-02-12T03:27:24.773Z,4.00
2023-02-12T03:29:51.938Z,7.00
2023-02-12T03:32:30.599Z,4.00
2023-02-12T03:35:19.356Z,4.67
2023-02-12T03:38:09.058Z,4.67
2023-02-12T03:40:40.220Z,4.00
2023-02-12T03:43:09.242Z,2.33
2023-02-12T03:45:42.434Z,4.00
2023-02-12T03:48:09.281Z,4.33
2023-02-12T03:50:38.774Z,7.00
2023-02-12T03:53:06.669Z,5.67
2023-02-12T03:55:34.913Z,3.00
2023-02-12T03:58:03.541Z,6.00
2023-02-12T04:00:30.758Z,13.50
2023-02-12T04:02:57.588Z,7.75
2023-02-12T04:05:25.959Z,5.33
2023-02-12T04:07:53.713Z,11.25
2023-02-12T04:10:23.587Z,8.75
2023-02-12T04:12:57.238Z,11.75
2023-02-12T04:15:32.285Z,30.00
2023-02-12T04:18:25.534Z,37.75
2023-02-12T04:20:51.924Z,17.25
2023-02-12T04:23:35.217Z,6.75
2023-02-12T04:26:02.432Z,6.00
2023-02-12T04:28:29.739Z,2.33
2023-02-12T04:31:09.334Z,3.67
2023-02-12T04:33:40.724Z,7.00
2023-02-12T04:36:13.470Z,3.00
2023-02-12T04:38:50.106Z,4.00
2023-02-12T04:41:16.845Z,3.00
2023-02-12T04:43:43.722Z,6.00
2023-02-12T04:46:10.575Z,15.50
2023-02-12T04:48:50.711Z,8.50
2023-02-12T04:51:17.214Z,9.50
2023-02-12T04:53:43.991Z,15.00
2023-02-12T04:56:13.902Z,24.00
2023-02-12T04:58:40.759Z,25.50
2023-02-12T05:01:07.963Z,45.25
2023-02-12T05:03:34.685Z,28.00
2023-02-12T05:06:07.999Z,37.00
2023-02-12T05:08:34.765Z,16.00
2023-02-12T05:11:05.712Z,26.25
2023-02-12T05:13:32.418Z,11.00
2023-02-12T05:15:59.381Z,30.75
2023-02-12T05:18:26.011Z,12.50
2023-02-12T05:20:59.287Z,15.00
2023-02-12T05:23:33.256Z,26.75
2023-02-12T05:26:00.476Z,13.00
2023-02-12T05:28:27.606Z,27.75
2023-02-12T05:30:54.538Z,13.00
2023-02-12T05:33:21.384Z,47.50
2023-02-12T05:35:47.921Z,37.50
2023-02-12T05:38:14.520Z,18.00
2023-02-12T05:40:43.191Z,13.50
2023-02-12T05:43:09.802Z,7.75
2023-02-12T05:45:38.206Z,9.50
2023-02-12T05:48:04.712Z,16.75
2023-02-12T05:50:31.471Z,15.00
2023-02-12T05:52:59.683Z,7.00
2023-02-12T05:55:26.198Z,10.33
2023-02-12T05:57:52.682Z,8.67
2023-02-12T06:00:19.707Z,12.00
2023-02-12T06:02:46.509Z,14.50
2023-02-12T06:05:12.992Z,13.00
2023-02-12T06:07:39.439Z,11.33
2023-02-12T06:10:06.202Z,10.00
2023-02-12T06:12:33.945Z,9.50
2023-02-12T06:15:00.762Z,12.00
2023-02-12T06:17:27.218Z,10.25
2023-02-12T06:19:53.650Z,11.25
2023-02-12T06:22:20.178Z,32.25
2023-02-12T06:24:46.697Z,9.00
2023-02-12T06:27:13.487Z,18.50
2023-02-12T06:29:39.956Z,44.25
2023-02-12T06:32:08.642Z,54.50
2023-02-12T06:34:35.165Z,39.25
2023-02-12T06:37:01.627Z,5.75
2023-02-12T06:39:28.197Z,13.00
2023-02-12T06:41:54.719Z,24.75
2023-02-12T06:44:21.357Z,53.50
2023-02-12T06:46:48.201Z,51.25
2023-02-12T06:49:15.080Z,43.50
2023-02-12T06:51:41.709Z,56.75
2023-02-12T06:54:13.377Z,75.00
2023-02-12T06:56:40.200Z,1.00
2023-02-12T06:59:06.687Z,24.00
2023-02-12T07:01:33.235Z,21.50
2023-02-12T07:04:01.226Z,21.00
2023-02-12T07:06:28.775Z,66.25
2023-02-12T07:08:56.166Z,9.33
2023-02-12T07:11:26.378Z,4.00
2023-02-12T07:13:53.404Z,10.50
2023-02-12T07:16:20.093Z,10.00
2023-02-12T07:18:46.784Z,8.00
2023-02-12T07:21:14.155Z,14.50
2023-02-12T07:23:41.107Z,5.00
2023-02-12T07:26:08.951Z,5.00
2023-02-12T07:28:35.646Z,34.50
2023-02-12T07:31:21.793Z,26.75
2023-02-12T07:33:48.909Z,32.00
2023-02-12T07:36:16.555Z,7.67
2023-02-12T07:38:43.610Z,5.00
2023-02-12T07:41:14.490Z,11.00
2023-02-12T07:43:41.503Z,5.00
2023-02-12T07:46:12.978Z,11.00
2023-02-12T07:48:39.480Z,16.00
2023-02-12T07:51:10.304Z,7.00
2023-02-12T07:53:37.080Z,12.67
2023-02-12T07:56:10.399Z,57.00
2023-02-12T07:58:37.408Z,138.67
2023-02-12T08:01:13.072Z,24.25
2023-02-12T08:03:39.708Z,152.33
2023-02-12T08:06:10.607Z,47.00
2023-02-12T08:08:39.159Z,11.00
2023-02-12T08:11:07.038Z,22.75
2023-02-12T08:13:34.129Z,16.00
2023-02-12T08:16:01.501Z,8.67
2023-02-12T08:18:28.279Z,13.00
2023-02-12T08:20:54.850Z,15.67
2023-02-12T08:23:21.316Z,63.75
2023-02-12T08:25:47.794Z,28.00
2023-02-12T08:28:14.299Z,23.67
2023-02-12T08:30:40.807Z,44.50
2023-02-12T08:33:07.355Z,21.67
2023-02-12T08:35:33.822Z,16.00
2023-02-12T08:38:00.328Z,15.00
2023-02-12T08:40:26.780Z,14.67
2023-02-12T08:42:53.200Z,11.00
2023-02-12T08:45:19.974Z,8.50
2023-02-12T08:47:48.101Z,15.00
2023-02-12T08:50:14.896Z,23.33
2023-02-12T08:52:43.063Z,13.67
2023-02-12T08:55:10.448Z,16.00
2023-02-12T08:57:36.905Z,19.00
2023-02-12T09:00:03.810Z,17.00
2023-02-12T09:02:30.440Z,17.67
2023-02-12T09:04:57.207Z,15.67
2023-02-12T09:07:23.679Z,12.33
2023-02-12T09:09:50.164Z,12.00
2023-02-12T09:12:16.607Z,12.00
2023-02-12T09:14:43.281Z,15.00
2023-02-12T09:17:10.090Z,16.00
2023-02-12T09:19:37.041Z,32.67
2023-02-12T09:22:03.635Z,13.00
2023-02-12T09:24:30.105Z,11.25
2023-02-12T09:26:56.651Z,17.67
2023-02-12T09:29:23.113Z,10.00
2023-02-12T09:31:49.779Z,15.50
2023-02-12T09:34:16.308Z,15.25
2023-02-12T09:36:42.841Z,36.75
2023-02-12T09:39:09.381Z,20.33
2023-02-12T09:41:42.701Z,28.33
2023-02-12T09:44:17.565Z,17.50
2023-02-12T09:46:50.269Z,14.25
2023-02-12T09:49:19.863Z,18.00
2023-02-12T09:51:51.703Z,10.25
2023-02-12T09:54:19.582Z,13.25
2023-02-12T09:56:52.431Z,8.00
2023-02-12T09:59:28.867Z,10.25
2023-02-12T10:01:55.381Z,10.25
2023-02-12T10:04:22.726Z,12.50
2023-02-12T10:06:58.069Z,9.75
2023-02-12T10:09:36.819Z,9.00
2023-02-12T10:12:07.239Z,14.50
2023-02-12T10:14:52.468Z,10.25
2023-02-12T10:17:37.820Z,11.00
2023-02-12T10:20:11.964Z,17.00
2023-02-12T10:22:56.886Z,15.75
2023-02-12T10:25:26.889Z,15.50
2023-02-12T10:27:58.103Z,20.00
2023-02-12T10:30:26.990Z,16.25
2023-02-12T10:32:56.846Z,30.00
2023-02-12T10:35:24.252Z,30.33
2023-02-12T10:37:57.401Z,31.67
2023-02-12T10:40:30.104Z,22.25
2023-02-12T10:42:58.082Z,20.50
2023-02-12T10:45:28.905Z,24.25
2023-02-12T10:48:04.166Z,17.50
2023-02-12T10:50:36.835Z,21.00
2023-02-12T10:53:06.494Z,21.67
2023-02-12T10:55:34.291Z,17.25
2023-02-12T10:58:02.587Z,17.50
2023-02-12T11:00:31.480Z,21.50
2023-02-12T11:03:00.964Z,12.75
2023-02-12T11:05:29.505Z,18.25
2023-02-12T11:07:57.753Z,13.00
2023-02-12T11:10:28.971Z,13.75
2023-02-12T11:12:55.786Z,15.50
2023-02-12T11:15:23.725Z,11.75
2023-02-12T11:17:56.295Z,12.75
2023-02-12T11:20:32.802Z,8.00
2023-02-12T11:23:00.585Z,12.50
2023-02-12T11:25:31.612Z,13.00
2023-02-12T11:28:18.323Z,12.50
2023-02-12T11:30:52.560Z,32.00
2023-02-12T11:33:29.760Z,16.50
2023-02-12T11:35:56.279Z,13.25
2023-02-12T11:38:31.461Z,12.75
2023-02-12T11:41:00.525Z,12.50
2023-02-12T11:43:29.523Z,12.00
2023-02-12T11:45:58.947Z,13.50
2023-02-12T11:48:27.509Z,12.75
2023-02-12T11:50:56.161Z,12.50
2023-02-12T11:53:43.049Z,12.25
2023-02-12T11:56:11.881Z,15.00
2023-02-12T11:58:38.758Z,12.75
2023-02-12T12:01:08.993Z,13.75
2023-02-12T12:03:54.127Z,12.00
2023-02-12T12:06:29.821Z,11.00
2023-02-12T12:08:56.365Z,12.00
2023-02-12T12:11:22.847Z,11.50
2023-02-12T12:14:14.312Z,11.25
2023-02-12T12:17:18.213Z,11.50
2023-02-12T12:19:54.090Z,9.50
2023-02-12T12:22:31.623Z,18.25
2023-02-12T12:25:06.365Z,13.00
2023-02-12T12:28:03.592Z,12.50
2023-02-12T12:30:30.174Z,9.00
2023-02-12T12:32:59.947Z,12.25
2023-02-12T12:35:33.800Z,14.25
2023-02-12T12:38:19.870Z,20.50
2023-02-12T12:40:46.395Z,17.00
2023-02-12T12:43:32.110Z,13.25
2023-02-12T12:46:01.676Z,14.75
2023-02-12T12:48:47.363Z,13.25
2023-02-12T12:51:32.132Z,14.00
2023-02-12T12:54:16.438Z,14.00
2023-02-12T12:57:03.072Z,18.75
2023-02-12T12:59:32.629Z,16.25
2023-02-12T13:02:02.175Z,17.00
2023-02-12T13:04:28.955Z,16.75
2023-02-12T13:07:14.076Z,18.25
2023-02-12T13:09:43.892Z,15.25
2023-02-12T13:12:10.359Z,18.00
2023-02-12T13:14:47.523Z,14.25
2023-02-12T13:17:21.104Z,16.00
2023-02-12T13:20:00.241Z,16.00
2023-02-12T13:22:36.282Z,14.00
2023-02-12T13:25:02.808Z,17.00
2023-02-12T13:27:34.490Z,16.25
2023-02-12T13:30:02.400Z,16.00
2023-02-12T13:32:30.225Z,17.25
2023-02-12T13:34:57.648Z,20.75
2023-02-12T13:37:46.705Z,16.50
2023-02-12T13:40:18.445Z,26.50
2023-02-12T13:42:48.074Z,16.00
2023-02-12T13:45:24.156Z,21.00
2023-02-12T13:47:59.674Z,29.00
2023-02-12T13:50:35.535Z,57.75
2023-02-12T13:53:08.303Z,30.33
2023-02-12T13:55:39.428Z,19.25
2023-02-12T13:58:41.943Z,15.50
2023-02-12T14:01:12.969Z,20.00
2023-02-12T14:03:39.771Z,31.00
2023-02-12T14:06:09.231Z,51.00
2023-02-12T14:08:37.426Z,32.00
2023-02-12T14:11:07.322Z,30.33
2023-02-12T14:13:44.750Z,19.00
2023-02-12T14:16:38.643Z,18.75
2023-02-12T14:19:23.811Z,26.00
2023-02-12T14:21:50.273Z,48.00
2023-02-12T14:24:35.497Z,76.75
2023-02-12T14:27:07.050Z,22.50
2023-02-12T14:29:33.668Z,15.00
2023-02-12T14:32:00.337Z,17.50
2023-02-12T14:34:36.216Z,26.33
2023-02-12T14:37:15.260Z,24.50
2023-02-12T14:39:41.877Z,24.25
2023-02-12T14:42:11.728Z,28.00
2023-02-12T14:44:38.909Z,20.67
2023-02-12T14:47:17.441Z,13.50
2023-02-12T14:49:52.312Z,24.25
2023-02-12T14:52:22.756Z,22.00
2023-02-12T14:54:56.794Z,5.75
2023-02-12T14:57:26.392Z,18.50
2023-02-12T14:59:55.685Z,19.75
2023-02-12T15:02:25.517Z,21.00
2023-02-12T15:04:53.199Z,15.25
2023-02-12T15:07:33.478Z,19.00
2023-02-12T15:10:10.329Z,14.50
2023-02-12T15:12:42.198Z,22.00
2023-02-12T15:15:27.419Z,18.00
2023-02-12T15:18:07.593Z,19.00
2023-02-12T15:20:37.744Z,24.67
2023-02-12T15:23:24.110Z,27.00
2023-02-12T15:25:51.467Z,26.33
2023-02-12T15:28:23.509Z,22.00
2023-02-12T15:30:50.535Z,31.67
2023-02-12T15:33:24.104Z,36.50
2023-02-12T15:35:50.714Z,35.00
2023-02-12T15:38:22.154Z,34.00
2023-02-12T15:40:55.982Z,24.33
2023-02-12T15:43:26.843Z,26.33
2023-02-12T15:45:54.043Z,26.00
2023-02-12T15:48:22.598Z,23.33
2023-02-12T15:50:55.442Z,24.33
2023-02-12T15:53:26.874Z,29.67
2023-02-12T15:55:53.502Z,29.50
2023-02-12T15:58:20.149Z,29.33
2023-02-12T16:00:49.914Z,45.25
2023-02-12T16:03:22.731Z,47.00
2023-02-12T16:05:50.572Z,42.50
2023-02-12T16:08:19.068Z,51.25
2023-02-12T16:10:48.076Z,56.75
2023-02-12T16:13:18.076Z,58.75
2023-02-12T16:15:44.648Z,63.75
2023-02-12T16:18:24.852Z,58.00
2023-02-12T16:21:02.536Z,48.00
2023-02-12T16:23:29.213Z,42.00
2023-02-12T16:25:56.632Z,34.00
2023-02-12T16:28:27.254Z,29.75
2023-02-12T16:30:54.318Z,27.50
2023-02-12T16:33:45.692Z,28.50
2023-02-12T16:36:24.339Z,27.00
2023-02-12T16:38:52.215Z,26.50
2023-02-12T16:41:18.680Z,34.50
2023-02-12T16:43:49.601Z,31.25
2023-02-12T16:46:16.931Z,36.75
2023-02-12T16:48:49.312Z,40.75
2023-02-12T16:51:23.976Z,39.50
2023-02-12T16:53:54.141Z,39.00
2023-02-12T16:56:22.181Z,36.00
2023-02-12T16:58:50.205Z,31.00
2023-02-12T17:01:23.428Z,39.25
2023-02-12T17:03:51.247Z,39.25
2023-02-12T17:06:20.700Z,36.25
2023-02-12T17:08:47.272Z,35.50
2023-02-12T17:11:17.971Z,38.75
2023-02-12T17:13:45.650Z,39.75
2023-02-12T17:16:14.484Z,36.00
2023-02-12T17:18:46.158Z,42.75
2023-02-12T17:21:13.039Z,39.25
2023-02-12T17:23:40.516Z,39.25
2023-02-12T17:26:08.330Z,37.50
2023-02-12T17:28:42.264Z,37.75
2023-02-12T17:31:09.281Z,38.00
2023-02-12T17:33:36.013Z,33.25
2023-02-12T17:36:02.565Z,38.75
2023-02-12T17:38:29.322Z,43.00
2023-02-12T17:40:56.424Z,50.50
2023-02-12T17:43:23.508Z,50.00
2023-02-12T17:45:50.004Z,44.75
2023-02-12T17:48:17.260Z,51.25
2023-02-12T17:50:44.059Z,46.50
2023-02-12T17:53:10.675Z,49.50
2023-02-12T17:55:40.779Z,55.75
2023-02-12T17:58:07.695Z,55.25
2023-02-12T18:00:34.567Z,64.25
2023-02-12T18:03:01.049Z,55.00
2023-02-12T18:05:27.672Z,57.75
2023-02-12T18:07:54.532Z,46.25
2023-02-12T18:10:21.223Z,46.25
2023-02-12T18:12:47.663Z,40.75
2023-02-12T18:15:14.949Z,46.00
2023-02-12T18:17:42.619Z,45.00
2023-02-12T18:20:10.588Z,42.25
2023-02-12T18:22:37.450Z,46.75
2023-02-12T18:25:04.202Z,41.00
2023-02-12T18:27:30.764Z,48.00
2023-02-12T18:29:57.377Z,43.75
2023-02-12T18:32:24.924Z,50.25
2023-02-12T18:34:51.492Z,53.00
2023-02-12T18:37:17.965Z,26.75
2023-02-12T18:39:44.407Z,52.75
2023-02-12T18:42:11.160Z,46.25
2023-02-12T18:44:37.690Z,47.00
2023-02-12T18:47:04.176Z,48.75
2023-02-12T18:49:30.681Z,45.75
2023-02-12T18:51:57.922Z,48.75
2023-02-12T18:54:24.446Z,49.25
2023-02-12T18:56:52.306Z,52.00
2023-02-12T18:59:19.256Z,50.50
2023-02-12T19:01:47.428Z,57.50
2023-02-12T19:04:16.057Z,56.00
2023-02-12T19:06:45.245Z,62.75
2023-02-12T19:09:12.647Z,65.00
2023-02-12T19:11:39.145Z,61.00
2023-02-12T19:14:06.440Z,62.75
2023-02-12T19:16:33.630Z,57.50
2023-02-12T19:19:01.477Z,54.75
2023-02-12T19:21:28.046Z,47.25
2023-02-12T19:23:55.741Z,55.00
2023-02-12T19:26:22.520Z,55.75
2023-02-12T19:28:49.208Z,46.50
2023-02-12T19:31:20.200Z,53.50
2023-02-12T19:33:47.578Z,44.00
2023-02-12T19:36:15.801Z,52.75
2023-02-12T19:38:43.059Z,45.50
2023-02-12T19:41:11.401Z,48.50
2023-02-12T19:43:38.121Z,50.00
2023-02-12T19:46:04.626Z,48.50
2023-02-12T19:48:31.654Z,50.75
2023-02-12T19:50:58.324Z,50.50
2023-02-12T19:53:25.412Z,50.00
2023-02-12T19:55:52.088Z,50.50
2023-02-12T19:58:18.629Z,42.75
2023-02-12T20:00:45.484Z,46.75
2023-02-12T20:03:12.269Z,45.50
2023-02-12T20:05:44.764Z,42.25
2023-02-12T20:08:11.397Z,45.00
2023-02-12T20:10:41.314Z,47.00
2023-02-12T20:13:08.003Z,42.00
2023-02-12T20:15:38.481Z,45.75
2023-02-12T20:18:06.368Z,41.75
2023-02-12T20:20:34.091Z,42.75
2023-02-12T20:23:00.646Z,43.50
2023-02-12T20:25:27.687Z,47.50
2023-02-12T20:27:54.143Z,49.25
2023-02-12T20:30:20.798Z,46.75
2023-02-12T20:32:47.345Z,46.00
2023-02-12T20:35:14.131Z,43.75
2023-02-12T20:37:41.092Z,42.75
2023-02-12T20:40:07.886Z,42.50
2023-02-12T20:42:34.286Z,41.25
2023-02-12T20:45:00.897Z,44.50
2023-02-12T20:47:30.630Z,44.75
2023-02-12T20:49:57.754Z,44.50
2023-02-12T20:52:24.992Z,45.00
2023-02-12T20:54:51.510Z,45.25
2023-02-12T20:57:18.016Z,45.25
2023-02-12T20:59:44.463Z,43.25
2023-02-12T21:02:11.781Z,47.75
2023-02-12T21:04:38.337Z,42.25
2023-02-12T21:07:04.716Z,37.25
2023-02-12T21:09:31.180Z,45.00
2023-02-12T21:11:59.247Z,38.75
2023-02-12T21:14:26.097Z,43.25
2023-02-12T21:16:53.889Z,44.00
2023-02-12T21:19:20.440Z,36.00
2023-02-12T21:21:48.005Z,46.25
2023-02-12T21:24:16.449Z,48.25
2023-02-12T21:26:43.400Z,40.50
2023-02-12T21:29:10.040Z,39.50
2023-02-12T21:31:38.427Z,46.75
2023-02-12T21:34:06.511Z,45.25
2023-02-12T21:36:34.776Z,42.75
2023-02-12T21:39:01.346Z,41.00
2023-02-12T21:41:31.888Z,47.75
2023-02-12T21:43:59.503Z,42.75
2023-02-12T21:46:26.556Z,43.50
2023-02-12T21:48:53.194Z,33.25
2023-02-12T21:51:22.414Z,41.75
2023-02-12T21:53:49.931Z,40.25
2023-02-12T21:56:16.930Z,42.75
2023-02-12T21:58:44.294Z,32.50
2023-02-12T22:01:13.726Z,41.50
2023-02-12T22:03:40.647Z,37.75
2023-02-12T22:06:08.504Z,37.00
2023-02-12T22:08:35.764Z,45.00
2023-02-12T22:11:03.485Z,43.50
2023-02-12T22:13:30.457Z,39.50
2023-02-12T22:15:57.638Z,42.50
2023-02-12T22:18:24.487Z,42.00
2023-02-12T22:20:51.150Z,39.00
2023-02-12T22:23:17.553Z,36.50
2023-02-12T22:25:43.914Z,31.00
2023-02-12T22:28:10.686Z,29.00
2023-02-12T22:30:39.773Z,45.25
2023-02-12T22:33:06.288Z,37.75
2023-02-12T22:35:33.092Z,33.25
2023-02-12T22:37:59.607Z,34.25
2023-02-12T22:40:26.115Z,42.00
2023-02-12T22:42:52.589Z,41.75
2023-02-12T22:45:19.440Z,41.75
2023-02-12T22:47:45.931Z,42.25
2023-02-12T22:50:12.745Z,43.00
2023-02-12T22:52:39.271Z,35.25
2023-02-12T22:55:06.058Z,44.50
2023-02-12T22:57:32.754Z,43.00
2023-02-12T22:59:59.262Z,35.50
2023-02-12T23:02:25.746Z,32.00
2023-02-12T23:04:52.532Z,33.75
2023-02-12T23:07:19.138Z,31.00
2023-02-12T23:09:45.635Z,36.75
2023-02-12T23:12:12.150Z,36.75
2023-02-12T23:14:38.700Z,37.00
2023-02-12T23:17:05.324Z,34.50
2023-02-12T23:19:31.759Z,40.50
2023-02-12T23:21:58.310Z,39.75
2023-02-12T23:24:25.902Z,36.00
2023-02-12T23:26:53.188Z,33.25
2023-02-12T23:29:20.010Z,37.00
2023-02-12T23:31:46.477Z,33.00
2023-02-12T23:34:12.939Z,33.25
2023-02-12T23:36:39.455Z,36.50
2023-02-12T23:39:06.346Z,36.00
2023-02-12T23:41:32.862Z,30.25
2023-02-12T23:43:59.337Z,36.25
2023-02-12T23:46:26.129Z,25.00
2023-02-12T23:48:52.599Z,33.75
2023-02-12T23:51:18.977Z,33.25
2023-02-12T23:53:45.740Z,36.25
2023-02-12T23:56:12.313Z,30.00
2023-02-12T23:58:38.791Z,31.00
